createdAt,value
2022-09-28T00:02:11.875Z,66.36
2022-09-28T00:04:38.564Z,66.63
2022-09-28T00:07:32.600Z,66.41
2022-09-28T00:10:11.297Z,66.29
2022-09-28T00:12:37.893Z,66.63
2022-09-28T00:15:05.075Z,66.71
2022-09-28T00:21:05.410Z,66.80
2022-09-28T00:23:32.454Z,66.84
2022-09-28T00:26:03.339Z,66.58
2022-09-28T00:28:29.913Z,66.65
2022-09-28T00:31:40.151Z,66.24
2022-09-28T00:34:06.738Z,66.50
2022-09-28T00:36:33.907Z,66.45
2022-09-28T00:39:04.706Z,66.83
2022-09-28T00:41:45.239Z,66.55
2022-09-28T00:44:41.909Z,66.34
2022-09-28T00:47:24.351Z,66.24
2022-09-28T00:49:57.444Z,66.52
2022-09-28T00:52:28.842Z,66.68
2022-09-28T00:54:57.110Z,66.02
2022-09-28T01:00:49.029Z,66.78
2022-09-28T01:03:16.243Z,66.56
2022-09-28T01:05:44.719Z,67.16
2022-09-28T01:08:12.764Z,66.44
2022-09-28T01:10:40.527Z,66.53
2022-09-28T01:13:07.189Z,66.25
2022-09-28T01:15:42.559Z,66.16
2022-09-28T01:18:17.041Z,66.39
2022-09-28T01:21:05.360Z,66.39
2022-09-28T01:23:53.492Z,65.85
2022-09-28T01:26:34.650Z,65.93
2022-09-28T01:29:08.845Z,66.18
2022-09-28T01:31:36.838Z,65.80
2022-09-28T01:34:08.411Z,65.71
2022-09-28T01:36:41.160Z,65.44
2022-09-28T01:39:10.876Z,66.08
2022-09-28T01:41:42.212Z,66.07
2022-09-28T01:44:14.697Z,66.02
2022-09-28T01:46:43.157Z,66.34
2022-09-28T01:49:14.806Z,65.92
2022-09-28T01:51:47.944Z,65.90
2022-09-28T01:54:21.986Z,65.97
2022-09-28T01:56:54.456Z,66.37
2022-09-28T01:59:25.084Z,65.88
2022-09-28T02:01:55.932Z,66.13
2022-09-28T02:04:27.712Z,66.05
2022-09-28T02:07:00.927Z,65.74
2022-09-28T02:09:33.773Z,65.52
2022-09-28T02:12:08.373Z,66.14
2022-09-28T02:14:39.385Z,65.68
2022-09-28T02:17:06.395Z,66.00
2022-09-28T02:19:33.833Z,65.95
2022-09-28T02:22:08.663Z,66.04
2022-09-28T02:24:38.645Z,66.31
2022-09-28T02:27:15.762Z,66.35
2022-09-28T02:29:42.375Z,65.79
2022-09-28T02:32:08.993Z,65.83
2022-09-28T02:34:35.995Z,65.75
2022-09-28T02:37:03.247Z,65.50
2022-09-28T02:39:29.796Z,65.46
2022-09-28T02:42:04.449Z,65.72
2022-09-28T02:44:47.386Z,65.51
2022-09-28T02:47:26.262Z,65.47
2022-09-28T02:50:03.640Z,65.46
2022-09-28T02:52:47.736Z,65.50
2022-09-28T02:55:24.203Z,65.36
2022-09-28T02:58:08.404Z,65.29
2022-09-28T03:00:44.689Z,65.35
2022-09-28T03:03:18.160Z,65.88
2022-09-28T03:05:53.197Z,65.87
2022-09-28T03:08:24.642Z,65.71
2022-09-28T03:10:58.533Z,65.46
2022-09-28T03:13:26.776Z,65.03
2022-09-28T03:16:07.532Z,65.33
2022-09-28T03:18:34.170Z,65.55
2022-09-28T03:21:01.737Z,65.16
2022-09-28T03:23:28.636Z,65.37
2022-09-28T03:25:55.497Z,65.39
2022-09-28T03:28:22.075Z,65.23
2022-09-28T03:30:48.764Z,65.64
2022-09-28T03:33:16.870Z,65.35
2022-09-28T03:35:46.727Z,65.28
2022-09-28T03:38:13.328Z,65.59
2022-09-28T03:40:39.900Z,65.43
2022-09-28T03:43:06.785Z,65.35
2022-09-28T03:45:33.316Z,65.83
2022-09-28T03:48:00.131Z,65.54
2022-09-28T03:50:28.080Z,65.60
2022-09-28T03:52:54.617Z,65.84
2022-09-28T03:55:21.679Z,66.11
2022-09-28T03:57:53.677Z,65.82
2022-09-28T04:00:20.362Z,66.02
2022-09-28T04:02:46.903Z,65.54
2022-09-28T04:05:13.620Z,66.00
2022-09-28T04:07:41.700Z,65.91
2022-09-28T04:10:09.202Z,65.59
2022-09-28T04:12:35.740Z,65.74
2022-09-28T04:15:02.425Z,65.69
2022-09-28T04:17:28.944Z,66.31
2022-09-28T04:19:55.851Z,66.63
2022-09-28T04:22:22.546Z,66.97
2022-09-28T04:24:50.500Z,66.45
2022-09-28T04:27:17.084Z,66.31
2022-09-28T04:29:43.960Z,66.51
2022-09-28T04:32:10.930Z,66.07
2022-09-28T04:34:41.872Z,66.48
2022-09-28T04:37:10.531Z,66.49
2022-09-28T04:39:37.056Z,65.96
2022-09-28T04:42:05.420Z,66.02
2022-09-28T04:44:31.990Z,66.21
2022-09-28T04:47:02.877Z,66.02
2022-09-28T04:49:31.467Z,66.04
2022-09-28T04:51:58.067Z,66.02
2022-09-28T04:54:25.170Z,66.28
2022-09-28T04:56:52.105Z,66.09
2022-09-28T04:59:20.366Z,66.14
2022-09-28T05:01:46.930Z,65.83
2022-09-28T05:04:13.469Z,65.94
2022-09-28T05:06:40.018Z,65.66
2022-09-28T05:09:06.841Z,65.93
2022-09-28T05:11:33.596Z,65.64
2022-09-28T05:14:00.384Z,65.37
2022-09-28T05:16:28.909Z,65.46
2022-09-28T05:18:56.006Z,65.54
2022-09-28T05:21:22.970Z,65.25
2022-09-28T05:23:49.826Z,65.36
2022-09-28T05:26:16.362Z,65.30
2022-09-28T05:28:43.126Z,64.96
2022-09-28T05:31:10.315Z,65.45
2022-09-28T05:33:38.537Z,66.38
2022-09-28T05:36:08.387Z,66.41
2022-09-28T05:38:35.030Z,65.60
2022-09-28T05:41:06.268Z,65.03
2022-09-28T05:43:35.140Z,65.01
2022-09-28T05:46:02.265Z,65.07
2022-09-28T05:48:29.115Z,65.09
2022-09-28T05:50:57.459Z,64.76
2022-09-28T05:53:24.623Z,64.77
2022-09-28T05:55:51.803Z,64.67
2022-09-28T05:58:21.187Z,64.77
2022-09-28T06:00:56.536Z,64.61
2022-09-28T06:03:23.761Z,64.75
2022-09-28T06:05:50.397Z,64.78
2022-09-28T06:08:19.320Z,64.72
2022-09-28T06:10:46.878Z,64.74
2022-09-28T06:13:14.026Z,65.12
2022-09-28T06:15:42.867Z,64.66
2022-09-28T06:18:11.463Z,64.84
2022-09-28T06:20:42.258Z,64.71
2022-09-28T06:23:13.571Z,64.52
2022-09-28T06:25:41.865Z,64.48
2022-09-28T06:28:10.724Z,64.59
2022-09-28T06:30:38.105Z,64.06
2022-09-28T06:33:06.231Z,64.13
2022-09-28T06:35:33.060Z,64.69
2022-09-28T06:38:00.466Z,64.15
2022-09-28T06:40:30.137Z,64.22
2022-09-28T06:43:00.580Z,64.07
2022-09-28T06:45:29.785Z,64.00
2022-09-28T06:47:58.211Z,63.42
2022-09-28T06:50:25.854Z,63.74
2022-09-28T06:52:54.547Z,63.63
2022-09-28T06:55:21.879Z,63.13
2022-09-28T06:57:59.003Z,63.07
2022-09-28T07:00:27.477Z,63.28
2022-09-28T07:02:55.753Z,63.03
2022-09-28T07:05:32.130Z,63.12
2022-09-28T07:07:58.793Z,62.67
2022-09-28T07:10:27.644Z,63.01
2022-09-28T07:12:55.096Z,62.75
2022-09-28T07:15:24.806Z,62.80
2022-09-28T07:18:01.863Z,63.11
2022-09-28T07:20:31.726Z,63.22
2022-09-28T07:23:15.633Z,62.89
2022-09-28T07:25:44.629Z,63.10
2022-09-28T07:28:11.813Z,62.66
2022-09-28T07:30:40.126Z,63.22
2022-09-28T07:33:09.384Z,63.05
2022-09-28T07:35:35.904Z,62.78
2022-09-28T07:38:06.432Z,62.39
2022-09-28T07:40:35.347Z,62.35
2022-09-28T07:43:05.370Z,62.38
2022-09-28T07:45:34.503Z,62.96
2022-09-28T07:48:05.660Z,63.33
2022-09-28T07:50:35.943Z,63.47
2022-09-28T10:20:31.970Z,55.81
2022-09-28T10:23:00.688Z,55.62
2022-09-28T10:25:28.058Z,54.95
2022-09-28T10:27:55.273Z,52.39
2022-09-28T10:30:23.988Z,50.73
2022-09-28T10:32:52.086Z,51.56
2022-09-28T10:35:24.690Z,50.88
2022-09-28T10:38:01.620Z,50.76
2022-09-28T10:40:37.709Z,49.94
2022-09-28T10:43:08.193Z,49.89
2022-09-28T10:45:36.912Z,49.57
2022-09-28T10:48:16.419Z,49.92
2022-09-28T10:50:43.394Z,49.30
2022-09-28T10:53:18.898Z,49.11
2022-09-28T10:55:57.139Z,49.25
2022-09-28T10:58:29.753Z,48.90
2022-09-28T11:01:02.419Z,48.22
2022-09-28T11:03:30.474Z,46.82
2022-09-28T11:05:59.515Z,45.72
2022-09-28T11:08:39.210Z,46.00
2022-09-28T11:11:09.389Z,45.76
2022-09-28T11:13:45.529Z,47.02
2022-09-28T11:16:22.664Z,48.46
2022-09-28T11:18:49.856Z,49.08
2022-09-28T11:21:21.732Z,49.52
2022-09-28T11:24:03.393Z,49.94
2022-09-28T11:26:39.747Z,50.42
2022-09-28T11:29:08.522Z,50.96
2022-09-28T11:31:36.782Z,51.53
2022-09-28T11:34:12.441Z,51.88
2022-09-28T11:37:03.107Z,51.21
2022-09-28T11:39:41.174Z,50.35
2022-09-28T11:42:31.638Z,48.19
2022-09-28T11:45:10.665Z,47.25
2022-09-28T11:47:53.185Z,46.59
2022-09-28T11:50:31.027Z,45.53
2022-09-28T11:53:04.718Z,45.46
2022-09-28T11:55:39.085Z,45.37
2022-09-28T11:58:12.420Z,44.56
2022-09-28T12:00:46.327Z,44.61
2022-09-28T12:03:16.870Z,45.36
2022-09-28T12:05:49.340Z,45.62
2022-09-28T12:08:22.590Z,46.60
2022-09-28T12:10:54.758Z,46.52
2022-09-28T12:13:26.180Z,47.17
2022-09-28T12:18:49.695Z,50.16
2022-09-28T12:21:37.395Z,49.94
2022-09-28T12:24:12.612Z,49.38
2022-09-28T12:26:48.601Z,49.13
2022-09-28T12:29:23.937Z,47.49
2022-09-28T12:32:02.856Z,46.93
2022-09-28T12:34:29.594Z,47.46
2022-09-28T12:37:08.183Z,46.98
2022-09-28T12:39:57.634Z,48.26
2022-09-28T12:42:50.356Z,50.02
2022-09-28T12:45:47.731Z,50.82
2022-09-28T12:49:36.650Z,50.45
2022-09-28T12:51:50.500Z,50.89
2022-09-28T12:54:33.446Z,51.99
2022-09-28T12:57:13.032Z,51.19
2022-09-28T12:59:49.887Z,52.13
2022-09-28T13:02:37.774Z,51.98
2022-09-28T13:05:21.848Z,51.71
2022-09-28T13:07:56.103Z,50.41
2022-09-28T13:10:30.055Z,50.12
2022-09-28T13:13:11.971Z,49.37
2022-09-28T13:15:46.499Z,47.18
2022-09-28T13:18:21.110Z,44.80
2022-09-28T13:21:18.695Z,44.17
2022-09-28T13:23:47.223Z,45.04
2022-09-28T13:26:22.084Z,44.81
2022-09-28T13:28:50.565Z,43.68
2022-09-28T13:31:26.766Z,43.38
2022-09-28T13:33:58.198Z,43.72
2022-09-28T13:36:42.519Z,42.65
2022-09-28T13:39:37.496Z,41.55
2022-09-28T13:42:08.051Z,41.43
2022-09-28T13:45:10.706Z,40.73
2022-09-28T13:48:23.063Z,40.34
2022-09-28T13:51:31.271Z,39.72
2022-09-28T13:54:19.753Z,40.40
2022-09-28T13:57:12.814Z,40.47
2022-09-28T13:59:54.597Z,40.79
2022-09-28T14:02:43.132Z,40.15
2022-09-28T14:05:52.494Z,39.87
2022-09-28T14:08:28.526Z,41.00
2022-09-28T14:10:56.369Z,41.44
2022-09-28T14:14:02.409Z,42.07
2022-09-28T14:16:35.434Z,42.65
2022-09-28T14:19:07.625Z,43.29
2022-09-28T14:22:17.430Z,43.46
2022-09-28T14:25:08.595Z,43.79
2022-09-28T14:28:16.583Z,42.24
2022-09-28T14:30:49.263Z,41.86
2022-09-28T14:33:34.952Z,41.62
2022-09-28T14:39:20.297Z,43.30
2022-09-28T14:41:47.240Z,43.83
2022-09-28T14:44:15.171Z,42.49
2022-09-28T14:46:42.746Z,43.37
2022-09-28T14:49:44.815Z,44.21
2022-09-28T14:52:13.476Z,44.23
2022-09-28T14:54:54.143Z,46.15
2022-09-28T14:57:24.124Z,47.39
2022-09-28T15:00:13.752Z,48.49
2022-09-28T15:02:52.331Z,49.12
2022-09-28T15:05:23.803Z,49.17
2022-09-28T15:07:52.538Z,50.86
2022-09-28T15:10:27.967Z,50.81
2022-09-28T15:13:27.991Z,49.92
2022-09-28T15:15:59.793Z,50.27
2022-09-28T15:18:56.403Z,50.07
2022-09-28T15:21:33.216Z,54.18
2022-09-28T15:24:00.515Z,57.13
2022-09-28T15:26:31.657Z,58.32
2022-09-28T15:28:59.354Z,59.03
2022-09-28T15:31:28.199Z,59.79
2022-09-28T15:33:55.071Z,60.42
2022-09-28T15:36:25.135Z,60.42
2022-09-28T15:38:56.973Z,61.03
2022-09-28T15:41:24.716Z,60.53
2022-09-28T15:44:39.836Z,60.77
2022-09-28T15:47:11.820Z,60.51
2022-09-28T15:49:43.181Z,60.19
2022-09-28T15:52:24.103Z,60.43
2022-09-28T15:54:51.227Z,59.70
2022-09-28T15:57:33.843Z,59.14
2022-09-28T16:00:02.249Z,58.85
2022-09-28T16:02:31.763Z,59.00
2022-09-28T16:05:01.107Z,60.10
2022-09-28T16:07:36.152Z,60.23
2022-09-28T16:10:25.911Z,60.35
2022-09-28T16:12:58.347Z,61.26
2022-09-28T16:15:29.062Z,60.96
2022-09-28T16:17:57.746Z,61.01
2022-09-28T16:20:28.359Z,60.91
2022-09-28T16:22:56.129Z,61.22
2022-09-28T16:25:25.785Z,61.61
2022-09-28T16:27:55.636Z,61.64
2022-09-28T16:30:24.360Z,61.44
2022-09-28T16:32:56.373Z,61.53
2022-09-28T16:35:31.314Z,61.41
2022-09-28T16:38:04.681Z,61.59
2022-09-28T16:40:32.628Z,61.54
2022-09-28T16:43:02.109Z,61.68
2022-09-28T16:45:29.539Z,61.66
2022-09-28T16:47:58.290Z,61.73
2022-09-28T16:50:25.679Z,61.81
2022-09-28T16:53:00.066Z,61.92
2022-09-28T16:55:40.162Z,62.46
2022-09-28T16:58:07.448Z,62.25
2022-09-28T17:00:33.992Z,62.23
2022-09-28T17:03:14.907Z,62.58
2022-09-28T17:05:43.118Z,63.24
2022-09-28T17:08:13.889Z,62.76
2022-09-28T17:11:02.563Z,62.36
2022-09-28T17:13:33.138Z,62.96
2022-09-28T17:16:01.128Z,62.99
2022-09-28T17:18:29.723Z,63.51
2022-09-28T17:20:57.543Z,63.60
2022-09-28T17:23:26.436Z,63.52
2022-09-28T17:25:53.056Z,63.60
2022-09-28T17:28:23.269Z,63.28
2022-09-28T17:30:51.728Z,63.02
2022-09-28T17:33:21.468Z,62.83
2022-09-28T17:35:52.809Z,62.97
2022-09-28T17:38:19.693Z,62.61
2022-09-28T17:40:48.071Z,62.91
2022-09-28T17:43:14.772Z,63.30
2022-09-28T17:45:41.526Z,63.35
2022-09-28T17:48:13.016Z,63.21
2022-09-28T17:50:43.205Z,63.80
2022-09-28T17:53:14.025Z,63.80
2022-09-28T17:55:41.274Z,64.19
2022-09-28T17:58:19.001Z,63.83
2022-09-28T18:00:47.012Z,64.52
2022-09-28T18:03:15.705Z,64.55
2022-09-28T18:05:43.912Z,64.50
2022-09-28T18:08:16.974Z,64.81
2022-09-28T18:10:43.544Z,64.99
2022-09-28T18:13:10.099Z,65.02
2022-09-28T18:15:37.083Z,65.61
2022-09-28T18:18:04.242Z,65.49
2022-09-28T18:20:31.009Z,65.34
2022-09-28T18:22:57.732Z,65.60
2022-09-28T18:25:25.668Z,65.70
2022-09-28T18:27:52.304Z,66.02
2022-09-28T18:30:19.237Z,65.96
2022-09-28T18:32:51.345Z,65.66
2022-09-28T18:35:32.063Z,66.24
2022-09-28T18:37:58.748Z,66.56
2022-09-28T18:40:31.806Z,66.40
2022-09-28T18:43:11.971Z,66.84
2022-09-28T18:45:47.190Z,66.72
2022-09-28T18:48:19.029Z,66.91
2022-09-28T18:50:47.610Z,66.54
2022-09-28T18:53:14.234Z,66.48
2022-09-28T18:55:43.432Z,66.86
2022-09-28T18:58:10.898Z,66.96
2022-09-28T19:00:38.456Z,66.91
2022-09-28T19:03:05.353Z,66.82
2022-09-28T19:05:34.645Z,66.37
2022-09-28T19:08:04.435Z,66.63
2022-09-28T19:10:32.264Z,66.67
2022-09-28T19:13:00.217Z,67.42
2022-09-28T19:15:36.932Z,67.32
2022-09-28T19:18:05.247Z,67.63
2022-09-28T19:20:32.731Z,67.66
2022-09-28T19:22:59.606Z,67.70
2022-09-28T19:25:28.003Z,67.76
2022-09-28T19:27:54.681Z,68.53
2022-09-28T19:30:42.050Z,68.12
2022-09-28T19:33:08.857Z,68.10
2022-09-28T19:35:35.782Z,68.52
2022-09-28T19:38:02.686Z,68.39
2022-09-28T19:40:29.472Z,68.34
2022-09-28T19:42:56.823Z,68.28
2022-09-28T19:45:23.492Z,68.41
2022-09-28T19:48:17.852Z,68.67
2022-09-28T19:50:44.706Z,68.86
2022-09-28T19:53:11.573Z,68.50
2022-09-28T19:55:38.357Z,68.66
2022-09-28T19:58:07.830Z,68.90
2022-09-28T20:00:34.384Z,68.61
2022-09-28T20:03:00.985Z,68.78
2022-09-28T20:05:29.000Z,68.94
2022-09-28T20:07:58.654Z,68.91
2022-09-28T20:10:25.174Z,69.02
2022-09-28T20:12:52.024Z,69.09
2022-09-28T20:15:18.946Z,69.39
2022-09-28T20:17:45.800Z,69.34
2022-09-28T20:20:12.397Z,69.09
2022-09-28T20:22:40.339Z,69.08
2022-09-28T20:25:07.378Z,68.90
2022-09-28T20:27:33.981Z,69.17
2022-09-28T20:30:00.550Z,69.02
2022-09-28T20:32:27.387Z,68.95
2022-09-28T20:34:53.987Z,69.17
2022-09-28T20:37:20.525Z,69.42
2022-09-28T20:39:51.262Z,69.11
2022-09-28T20:42:18.052Z,68.96
2022-09-28T20:44:44.908Z,69.28
2022-09-28T20:47:11.712Z,68.92
2022-09-28T20:49:38.210Z,68.95
2022-09-28T20:52:04.962Z,69.30
2022-09-28T20:54:31.550Z,69.43
2022-09-28T20:57:02.549Z,69.26
2022-09-28T20:59:29.104Z,69.50
2022-09-28T21:01:55.690Z,69.31
2022-09-28T21:04:22.234Z,69.10
2022-09-28T21:06:56.177Z,69.27
2022-09-28T21:09:22.737Z,69.89
2022-09-28T21:11:49.703Z,69.55
2022-09-28T21:14:19.719Z,69.44
2022-09-28T21:16:46.521Z,69.47
2022-09-28T21:19:13.029Z,69.48
2022-09-28T21:21:39.868Z,69.58
2022-09-28T21:24:07.139Z,70.04
2022-09-28T21:26:34.030Z,69.69
2022-09-28T21:29:02.161Z,69.50
2022-09-28T21:31:32.425Z,69.96
2022-09-28T21:33:59.353Z,69.67
2022-09-28T21:36:27.941Z,69.85
2022-09-28T21:38:55.018Z,69.91
2022-09-28T21:41:23.106Z,69.63
2022-09-28T21:43:51.767Z,69.66
2022-09-28T21:46:18.710Z,69.58
2022-09-28T21:48:51.348Z,69.63
2022-09-28T21:51:18.269Z,69.60
2022-09-28T21:53:44.991Z,69.66
2022-09-28T21:56:13.038Z,70.17
2022-09-28T21:58:39.923Z,69.62
2022-09-28T22:01:08.910Z,70.18
2022-09-28T22:03:36.429Z,70.07
2022-09-28T22:06:05.067Z,69.87
2022-09-28T22:08:32.043Z,69.93
2022-09-28T22:10:59.203Z,70.10
2022-09-28T22:13:25.723Z,70.07
2022-09-28T22:15:52.994Z,70.12
2022-09-28T22:18:19.793Z,70.09
2022-09-28T22:20:46.304Z,69.94
2022-09-28T22:23:14.228Z,69.92
2022-09-28T22:25:40.781Z,70.09
2022-09-28T22:28:07.352Z,70.18
2022-09-28T22:30:34.161Z,70.21
2022-09-28T22:33:00.916Z,70.12
2022-09-28T22:35:27.652Z,70.10
2022-09-28T22:37:54.168Z,70.19
2022-09-28T22:40:22.434Z,70.08
2022-09-28T22:42:49.163Z,69.85
2022-09-28T22:45:15.691Z,69.74
2022-09-28T22:47:43.626Z,70.10
2022-09-28T22:50:10.273Z,70.09
2022-09-28T22:52:37.032Z,69.87
2022-09-28T22:55:04.124Z,70.08
2022-09-28T22:57:32.369Z,70.34
2022-09-28T22:59:59.065Z,70.42
2022-09-28T23:02:25.702Z,70.54
2022-09-28T23:04:52.243Z,70.48
2022-09-28T23:07:18.746Z,70.59
2022-09-28T23:09:46.321Z,70.71
2022-09-28T23:12:13.109Z,70.84
2022-09-28T23:14:40.995Z,70.90
2022-09-28T23:17:07.938Z,70.89
2022-09-28T23:19:34.461Z,70.83
2022-09-28T23:22:00.985Z,70.79
2022-09-28T23:24:27.503Z,70.75
2022-09-28T23:26:54.064Z,70.27
2022-09-28T23:29:20.758Z,70.07
2022-09-28T23:31:48.943Z,69.43
2022-09-28T23:34:15.477Z,69.38
2022-09-28T23:36:43.117Z,69.33
2022-09-28T23:39:10.415Z,69.09
2022-09-28T23:41:37.390Z,69.37
2022-09-28T23:44:05.484Z,68.99
2022-09-28T23:46:32.015Z,69.21
2022-09-28T23:49:00.153Z,68.93
2022-09-28T23:51:26.757Z,68.94
2022-09-28T23:53:53.345Z,69.08
2022-09-28T23:56:19.876Z,69.25
2022-09-28T23:58:46.444Z,69.32
